Time;durP1;ratioP1;P1;durP2;ratioP2;P2;SDS_P1;SDS_P2;PMS_P1;PMS_P2;Temp;Humidity;BMP_temperature;BMP_pressure;BME280_temperature;BME280_humidity;BME280_pressure;Samples;Min_cycle;Max_cycle;Signal;HPM_P1;HPM_P2
2023/04/07 00:01:22;;;;;;;37.35;23.02;;;9.40;90.10;;;;;;5050554;28;20052;-74
2023/04/07 00:04:26;;;;;;;36.67;22.00;;;9.50;90.30;;;;;;5050404;28;20040;-73
2023/04/07 00:07:29;;;;;;;31.70;19.63;;;9.20;89.30;;;;;;5050613;28;20529;-73
2023/04/07 00:10:34;;;;;;;27.80;19.17;;;9.90;89.80;;;;;;5050557;28;20044;-73
2023/04/07 00:13:38;;;;;;;29.25;18.45;;;;;;;;;;5050860;28;20040;-72
2023/04/07 00:16:42;;;;;;;37.17;19.80;;;8.30;88.20;;;;;;5050571;28;20496;-71
2023/04/07 00:19:47;;;;;;;29.73;18.95;;;9.90;89.00;;;;;;5049565;28;20056;-72
2023/04/07 00:22:51;;;;;;;27.85;18.45;;;9.40;88.50;;;;;;5049652;28;20048;-73
2023/04/07 00:25:55;;;;;;;30.17;18.02;;;9.80;88.70;;;;;;5050334;28;20064;-73
2023/04/07 00:29:02;;;;;;;27.63;16.55;;;9.30;88.00;;;;;;5049978;28;20040;-73
2023/04/07 00:32:05;;;;;;;21.95;15.15;;;9.20;87.70;;;;;;5050315;28;20048;-73
2023/04/07 00:35:09;;;;;;;23.92;14.13;;;9.00;87.60;;;;;;5050260;28;20527;-73
2023/04/07 00:38:13;;;;;;;25.30;14.35;;;9.50;87.30;;;;;;5049633;28;20056;-73
2023/04/07 00:41:17;;;;;;;24.92;15.40;;;9.80;86.50;;;;;;5050230;28;20064;-72
2023/04/07 00:44:21;;;;;;;23.48;15.52;;;;;;;;;;5049351;28;20044;-72
2023/04/07 00:47:26;;;;;;;19.85;14.50;;;;;;;;;;5050500;28;20052;-72
2023/04/07 00:50:30;;;;;;;20.95;14.13;;;11.50;87.90;;;;;;5049420;28;20415;-72
2023/04/07 00:53:34;;;;;;;24.98;15.10;;;10.70;87.90;;;;;;5050493;28;20052;-72
2023/04/07 00:56:38;;;;;;;27.02;14.10;;;;;;;;;;5050365;28;20044;-72
2023/04/07 00:59:41;;;;;;;20.50;12.85;;;9.40;87.30;;;;;;5040642;28;20075;-72
2023/04/07 01:03:00;;;;;;;20.23;13.32;;;11.40;89.70;;;;;;5053040;28;20195;-72
2023/04/07 01:06:06;;;;;;;24.58;13.70;;;;;;;;;;5053578;28;20048;-72
2023/04/07 01:09:20;;;;;;;23.33;13.13;;;8.90;89.60;;;;;;5053430;28;20040;-72
2023/04/07 01:12:46;;;;;;;26.27;13.60;;;9.00;89.40;;;;;;5052755;28;20072;-71
2023/04/07 01:15:57;;;;;;;22.15;13.02;;;9.00;89.50;;;;;;5052666;28;20048;-72
2023/04/07 01:19:12;;;;;;;19.25;12.65;;;10.30;89.10;;;;;;5052541;28;20044;-73
2023/04/07 01:22:24;;;;;;;21.50;12.18;;;;;;;;;;5052455;28;20163;-73
2023/04/07 01:26:07;;;;;;;26.33;13.73;;;8.20;87.80;;;;;;5052467;28;20056;-73
2023/04/07 01:29:35;;;;;;;26.25;12.48;;;9.20;87.70;;;;;;5055382;28;20052;-72
2023/04/07 01:32:42;;;;;;;17.88;12.30;;;9.60;88.40;;;;;;5052578;28;20048;-72
2023/04/07 01:35:48;;;;;;;18.48;11.95;;;10.50;88.80;;;;;;5040872;28;20067;-72
2023/04/07 01:38:53;;;;;;;26.98;12.50;;;;;;;;;;5040767;28;20512;-73
2023/04/07 01:41:58;;;;;;;24.48;12.07;;;10.40;89.00;;;;;;5053100;28;20626;-73
2023/04/07 01:45:03;;;;;;;21.80;12.38;;;9.00;89.60;;;;;;5052315;28;20503;-72
2023/04/07 01:48:08;;;;;;;19.52;12.25;;;;;;;;;;5051978;28;20048;-74
2023/04/07 01:51:17;;;;;;;16.42;12.48;;;10.10;90.10;;;;;;5052898;28;20040;-72
2023/04/07 01:54:22;;;;;;;17.80;11.98;;;;;;;;;;5051793;28;20048;-72
2023/04/07 01:57:27;;;;;;;17.90;12.02;;;;;;;;;;5051884;28;20047;-72
2023/04/07 02:00:36;;;;;;;17.60;12.00;;;8.50;90.60;;;;;;5051749;28;20052;-71
2023/04/07 02:03:55;;;;;;;21.13;11.57;;;;;;;;;;5051950;28;20040;-71
2023/04/07 02:07:02;;;;;;;19.40;12.13;;;8.70;90.00;;;;;;5052785;28;20048;-73
2023/04/07 02:10:18;;;;;;;16.48;11.15;;;7.00;88.90;;;;;;5050592;28;20040;-74
2023/04/07 02:13:23;;;;;;;19.77;11.25;;;9.60;89.90;;;;;;5051826;28;20055;-72
2023/04/07 02:16:33;;;;;;;16.00;11.50;;;9.00;89.60;;;;;;5040256;28;20043;-72
2023/04/07 02:19:38;;;;;;;20.23;12.35;;;8.80;89.60;;;;;;5040085;28;20064;-73
2023/04/07 02:22:46;;;;;;;25.35;12.27;;;;;;;;;;5039946;28;20496;-72
2023/04/07 02:25:50;;;;;;;20.17;13.07;;;;;;;;;;5051315;28;20163;-73
2023/04/07 02:28:54;;;;;;;20.52;13.45;;;7.90;89.90;;;;;;5052053;28;20044;-74
2023/04/07 02:31:59;;;;;;;20.90;13.52;;;;;;;;;;5051932;28;20539;-72
2023/04/07 02:35:06;;;;;;;16.85;11.98;;;;;;;;;;5052120;28;20052;-72
2023/04/07 02:38:12;;;;;;;19.35;13.02;;;;;;;;;;5051919;28;20148;-72
2023/04/07 02:41:16;;;;;;;21.25;13.27;;;7.00;89.10;;;;;;5051859;28;20071;-72
2023/04/07 02:44:20;;;;;;;20.40;12.63;;;;;;;;;;5050909;28;20040;-73
2023/04/07 02:47:25;;;;;;;21.08;12.60;;;8.80;90.40;;;;;;5052053;28;20116;-74
2023/04/07 02:50:30;;;;;;;18.65;12.00;;;;;;;;;;5051078;28;20048;-72
2023/04/07 02:53:34;;;;;;;18.73;11.93;;;;;;;;;;5051532;28;20052;-73
2023/04/07 02:56:38;;;;;;;18.17;11.25;;;;;;;;;;5051083;28;20051;-73
2023/04/07 02:59:42;;;;;;;16.85;11.63;;;;;;;;;;5050681;28;20063;-72
2023/04/07 03:02:49;;;;;;;19.48;11.25;;;;;;;;;;5039808;28;20523;-72
2023/04/07 03:05:55;;;;;;;15.38;11.52;;;;;;;;;;5050444;28;20068;-73
2023/04/07 03:08:59;;;;;;;24.67;12.15;;;;;;;;;;5050778;28;20059;-71
2023/04/07 03:12:04;;;;;;;17.90;11.82;;;;;;;;;;5051277;28;20044;-73
2023/04/07 03:15:12;;;;;;;19.67;12.20;;;;;;;;;;5050634;28;20036;-73
2023/04/07 03:18:21;;;;;;;16.70;11.73;;;;;;;;;;5051113;28;20040;-73
2023/04/07 03:21:27;;;;;;;17.00;12.45;;;;;;;;;;5049933;28;20056;-72
2023/04/07 03:24:32;;;;;;;18.30;11.57;;;;;;;;;;5050104;28;20684;-73
2023/04/07 03:27:37;;;;;;;16.10;11.35;;;;;;;;;;5050750;28;20048;-75
2023/04/07 03:30:41;;;;;;;21.00;12.23;;;;;;;;;;5051270;28;20048;-73
2023/04/07 03:33:46;;;;;;;19.48;11.20;;;;;;;;;;5050423;28;20048;-73
2023/04/07 03:36:51;;;;;;;20.73;11.63;;;;;;;;;;5050369;28;20048;-72
2023/04/07 03:39:55;;;;;;;20.05;11.80;;;;;;;;;;5050085;28;20052;-71
2023/04/07 03:43:14;;;;;;;22.02;13.30;;;;;;;;;;5050848;28;20044;-72
2023/04/07 03:46:20;;;;;;;23.23;11.75;;;8.60;91.70;;;;;;5049927;28;20103;-72
2023/04/07 03:49:26;;;;;;;22.83;13.52;;;;;;;;;;5050112;28;20052;-72
2023/04/07 03:52:31;;;;;;;21.20;12.30;;;;;;;;;;5039036;28;20484;-72
2023/04/07 03:55:43;;;;;;;;;;;;;;;;;;5050169;28;20052;-73
2023/04/07 03:58:56;;;;;;;23.73;13.90;;;;;;;;;;5049812;28;19935;-72
2023/04/07 04:02:05;;;;;;;23.55;13.52;;;;;;;;;;5049763;28;20052;-72
2023/04/07 04:05:10;;;;;;;21.27;13.70;;;;;;;;;;5050882;28;20052;-72
2023/04/07 04:08:14;;;;;;;24.63;13.05;;;;;;;;;;5049685;28;20044;-73
2023/04/07 04:11:20;;;;;;;20.90;13.05;;;8.90;93.00;;;;;;5049854;28;20500;-72
2023/04/07 04:14:32;;;;;;;18.10;12.65;;;;;;;;;;5049469;28;20048;-72
2023/04/07 04:17:38;;;;;;;26.88;14.23;;;7.60;92.70;;;;;;5049676;28;20044;-71
2023/04/07 04:20:43;;;;;;;27.67;13.70;;;;;;;;;;5049540;28;20072;-72
2023/04/07 04:23:48;;;;;;;19.20;13.20;;;;;;;;;;5038011;28;20047;-72
2023/04/07 04:26:52;;;;;;;19.00;12.30;;;;;;;;;;5049764;28;20052;-72
2023/04/07 04:29:56;;;;;;;23.00;12.55;;;;;;;;;;5049664;28;20377;-71
2023/04/07 04:33:11;;;;;;;27.88;13.00;;;8.40;93.40;;;;;;5050258;28;20646;-72
2023/04/07 04:36:27;;;;;;;19.33;11.60;;;;;;;;;;5053336;28;20040;-73
2023/04/07 04:39:36;;;;;;;22.50;10.75;;;;;;;;;;5053412;28;20051;-73
2023/04/07 04:42:41;;;;;;;23.08;10.57;;;6.50;93.40;;;;;;5053533;28;20044;-73
2023/04/07 04:45:48;;;;;;;18.58;10.68;;;;;;;;;;5053395;28;20039;-72
2023/04/07 04:48:55;;;;;;;23.20;10.75;;;;;;;;;;5053515;28;20051;-72
2023/04/07 04:52:00;;;;;;;17.45;10.25;;;7.70;93.00;;;;;;5052990;28;20056;-71
2023/04/07 04:55:08;;;;;;;15.10;9.82;;;9.60;93.30;;;;;;5052847;28;20202;-73
2023/04/07 04:58:12;;;;;;;24.05;9.73;;;10.80;93.70;;;;;;5042021;28;20082;-71
2023/04/07 05:01:23;;;;;;;13.93;9.05;;;9.50;93.40;;;;;;5053158;28;20047;-71
2023/04/07 05:04:39;;;;;;;19.98;9.18;;;;;;;;;;5053265;28;20048;-73
2023/04/07 05:07:56;;;;;;;23.48;9.05;;;8.50;93.20;;;;;;5052792;28;20045;-73
2023/04/07 05:11:03;;;;;;;15.00;9.18;;;8.60;93.10;;;;;;5042071;28;20048;-72
2023/04/07 05:14:12;;;;;;;23.92;9.27;;;9.70;93.10;;;;;;5041358;28;20056;-73
2023/04/07 05:17:21;;;;;;;24.83;9.48;;;8.60;92.60;;;;;;5052869;28;20040;-72
2023/04/07 05:20:25;;;;;;;36.65;10.27;;;8.50;92.10;;;;;;5052485;28;20404;-71
2023/04/07 05:23:29;;;;;;;22.88;9.95;;;10.00;91.70;;;;;;5053619;28;20424;-72
2023/04/07 05:26:34;;;;;;;29.27;10.20;;;10.70;91.10;;;;;;5041251;28;20068;-69
2023/04/07 05:29:41;;;;;;;23.00;8.65;;;11.10;90.50;;;;;;5052101;28;20060;-59
2023/04/07 05:32:52;;;;;;;23.85;8.35;;;;;;;;;;5052229;28;20413;-58
2023/04/07 05:36:06;;;;;;;44.38;9.88;;;12.50;85.90;;;;;;5052455;28;20040;-59
2023/04/07 05:39:11;;;;;;;31.55;9.85;;;12.10;84.50;;;;;;5052154;28;20048;-59
2023/04/07 05:42:16;;;;;;;50.97;11.00;;;12.30;86.90;;;;;;5051877;28;20059;-58
2023/04/07 05:45:24;;;;;;;33.88;9.35;;;13.00;85.40;;;;;;5050766;28;20040;-59
2023/04/07 05:48:29;;;;;;;40.47;9.75;;;13.90;82.70;;;;;;5051932;28;20040;-59
2023/04/07 05:51:33;;;;;;;29.33;9.85;;;17.40;82.10;;;;;;5052471;28;20111;-60
2023/04/07 05:54:41;;;;;;;26.00;10.32;;;14.40;79.80;;;;;;5052231;28;20397;-59
2023/04/07 05:57:48;;;;;;;27.33;16.15;;;;;;;;;;5052142;28;20040;-59
2023/04/07 06:00:55;;;;;;;37.40;20.60;;;16.80;79.10;;;;;;5051670;28;20052;-58
2023/04/07 06:04:00;;;;;;;39.47;22.98;;;14.50;78.50;;;;;;5052250;28;20539;-58
2023/04/07 06:07:05;;;;;;;42.05;25.17;;;14.60;78.70;;;;;;5052007;28;20056;-58
2023/04/07 06:10:09;;;;;;;43.17;26.10;;;14.50;79.60;;;;;;5051626;28;20060;-60
2023/04/07 06:13:13;;;;;;;44.30;25.58;;;14.60;79.70;;;;;;5051869;28;20504;-59
2023/04/07 06:16:18;;;;;;;43.58;24.38;;;14.40;79.10;;;;;;5051086;28;20036;-60
2023/04/07 06:19:22;;;;;;;53.40;25.13;;;14.30;80.00;;;;;;5051285;28;20048;-59
2023/04/07 06:22:26;;;;;;;45.83;28.38;;;14.30;80.40;;;;;;5052116;28;20120;-60
2023/04/07 06:25:30;;;;;;;44.38;27.40;;;14.20;80.20;;;;;;5051747;28;20048;-60
2023/04/07 06:28:34;;;;;;;50.65;29.48;;;14.50;80.00;;;;;;5051187;28;20052;-59
2023/04/07 06:31:38;;;;;;;56.83;25.73;;;14.90;79.40;;;;;;5051430;28;20055;-61
2023/04/07 06:34:42;;;;;;;44.70;28.27;;;14.90;78.90;;;;;;5052268;28;20048;-62
2023/04/07 06:37:46;;;;;;;50.58;24.42;;;15.10;79.40;;;;;;5052366;28;20044;-64
2023/04/07 06:40:51;;;;;;;56.58;31.52;;;15.30;78.20;;;;;;5051215;28;20520;-59
2023/04/07 06:43:54;;;;;;;63.97;31.27;;;15.30;78.50;;;;;;5052006;28;20679;-59
2023/04/07 06:46:58;;;;;;;52.22;30.00;;;15.40;78.40;;;;;;5051783;28;20056;-60
2023/04/07 06:50:03;;;;;;;50.20;26.83;;;15.40;79.10;;;;;;5051714;28;20044;-60
2023/04/07 06:53:07;;;;;;;43.03;25.67;;;15.60;79.20;;;;;;5052072;28;20051;-59
2023/04/07 06:56:11;;;;;;;40.95;24.10;;;15.90;77.80;;;;;;5051740;28;20039;-60
2023/04/07 06:59:15;;;;;;;41.58;21.02;;;16.10;78.00;;;;;;5051095;28;20413;-60
2023/04/07 07:02:19;;;;;;;37.22;19.40;;;16.40;77.50;;;;;;5051443;28;20047;-58
2023/04/07 07:05:23;;;;;;;30.25;16.65;;;16.70;77.40;;;;;;5051176;28;20040;-60
2023/04/07 07:08:28;;;;;;;24.42;15.95;;;16.60;76.10;;;;;;5050166;28;20071;-60
2023/04/07 07:11:32;;;;;;;37.85;14.55;;;16.30;77.50;;;;;;5051218;28;20044;-59
2023/04/07 07:14:36;;;;;;;33.85;13.13;;;16.60;77.80;;;;;;5051061;28;20052;-59
2023/04/07 07:17:40;;;;;;;21.15;12.02;;;16.90;76.20;;;;;;5051318;28;20048;-59
2023/04/07 07:20:44;;;;;;;23.08;10.63;;;17.20;75.50;;;;;;5049827;28;20116;-58
2023/04/07 07:23:48;;;;;;;30.70;11.55;;;16.90;76.40;;;;;;5051171;28;20044;-60
2023/04/07 07:26:52;;;;;;;17.23;8.75;;;17.30;77.40;;;;;;5050900;28;20064;-59
2023/04/07 07:29:56;;;;;;;15.40;8.70;;;17.20;76.20;;;;;;5051178;28;20043;-58
2023/04/07 07:33:00;;;;;;;13.05;6.28;;;17.10;76.30;;;;;;5038577;28;20112;-60
2023/04/07 07:36:04;;;;;;;14.20;5.18;;;17.10;76.70;;;;;;5051220;28;20044;-59
2023/04/07 07:39:08;;;;;;;12.32;5.65;;;17.20;76.50;;;;;;5051049;28;20051;-59
2023/04/07 07:42:12;;;;;;;11.25;5.22;;;17.40;76.60;;;;;;5051069;28;20091;-58
2023/04/07 07:45:18;;;;;;;13.85;5.70;;;17.50;75.90;;;;;;5050685;28;20526;-59
2023/04/07 07:48:22;;;;;;;13.48;5.30;;;17.70;76.00;;;;;;5050495;28;20456;-59
2023/04/07 07:51:26;;;;;;;11.98;4.95;;;17.80;75.50;;;;;;5050259;28;20787;-58
2023/04/07 07:54:30;;;;;;;13.55;5.90;;;18.00;75.30;;;;;;5050484;28;20558;-58
2023/04/07 07:57:35;;;;;;;13.43;5.15;;;18.10;75.00;;;;;;5050442;28;20108;-59
2023/04/07 08:00:39;;;;;;;28.80;5.75;;;17.90;74.40;;;;;;5050362;28;20056;-59
2023/04/07 08:03:44;;;;;;;14.27;5.50;;;17.70;75.40;;;;;;5050546;28;20488;-59
2023/04/07 08:06:49;;;;;;;13.23;5.07;;;17.50;76.10;;;;;;5050571;28;20072;-59
2023/04/07 08:09:53;;;;;;;11.23;4.65;;;17.70;75.60;;;;;;5054015;28;20052;-58
2023/04/07 08:12:57;;;;;;;11.57;4.50;;;17.70;75.10;;;;;;5054875;28;20052;-59
2023/04/07 08:16:01;;;;;;;10.52;4.30;;;17.80;74.80;;;;;;5054802;28;20047;-58
2023/04/07 08:19:05;;;;;;;13.25;4.10;;;18.10;74.80;;;;;;5054405;28;20044;-59
2023/04/07 08:22:09;;;;;;;14.93;4.13;;;18.60;73.90;;;;;;5054572;28;20063;-59
2023/04/07 08:25:13;;;;;;;8.27;3.75;;;18.60;71.50;;;;;;5054249;28;20064;-59
2023/04/07 08:28:17;;;;;;;7.70;4.13;;;18.70;71.90;;;;;;5053243;28;20040;-58
2023/04/07 08:31:21;;;;;;;7.47;3.55;;;18.60;71.10;;;;;;5054461;28;20055;-60
2023/04/07 08:34:25;;;;;;;11.15;4.30;;;18.60;71.20;;;;;;5054322;28;20040;-59
2023/04/07 08:37:30;;;;;;;17.73;4.97;;;18.50;71.20;;;;;;5054113;28;20596;-60
2023/04/07 08:40:34;;;;;;;10.90;4.00;;;18.30;72.60;;;;;;5054167;28;20504;-60
2023/04/07 08:43:40;;;;;;;7.97;3.50;;;18.40;73.60;;;;;;5053888;28;20040;-59
2023/04/07 08:46:45;;;;;;;11.60;4.43;;;18.70;73.20;;;;;;5054196;28;20182;-59
2023/04/07 08:49:51;;;;;;;13.95;5.25;;;18.90;72.70;;;;;;5053858;28;20040;-59
2023/04/07 08:52:57;;;;;;;12.55;4.55;;;19.10;71.70;;;;;;5054258;28;20492;-60
2023/04/07 08:56:01;;;;;;;17.83;5.13;;;19.10;72.40;;;;;;5054134;28;20048;-59
2023/04/07 08:59:07;;;;;;;8.25;4.25;;;18.90;71.80;;;;;;5053864;28;20416;-60
2023/04/07 09:02:11;;;;;;;21.38;5.22;;;18.70;71.30;;;;;;5052782;28;20056;-60
2023/04/07 09:05:15;;;;;;;9.13;4.25;;;18.40;70.40;;;;;;5053741;28;20225;-61
2023/04/07 09:08:19;;;;;;;7.63;4.13;;;18.40;71.00;;;;;;5053637;28;20044;-60
2023/04/07 09:11:24;;;;;;;13.18;5.05;;;18.40;70.80;;;;;;5053846;28;20170;-60
2023/04/07 09:14:28;;;;;;;18.70;7.55;;;18.50;70.40;;;;;;5053529;28;20044;-60
2023/04/07 09:17:32;;;;;;;15.35;6.60;;;18.60;71.90;;;;;;5052739;28;20036;-59
2023/04/07 09:20:59;;;;;;;23.45;6.93;;;18.70;73.20;;;;;;5052476;28;20147;-61
2023/04/07 09:24:26;;;;;;;20.92;7.82;;;18.80;73.20;;;;;;5053311;28;20052;-60
2023/04/07 09:27:31;;;;;;;11.15;5.75;;;18.80;71.10;;;;;;5053390;28;20048;-59
2023/04/07 09:30:35;;;;;;;27.45;6.75;;;18.60;71.10;;;;;;5053289;28;20385;-59
2023/04/07 09:33:40;;;;;;;19.98;6.68;;;18.40;72.20;;;;;;5052832;28;20064;-62
2023/04/07 09:36:44;;;;;;;19.83;5.10;;;18.40;69.50;;;;;;5053060;28;20048;-60
2023/04/07 09:39:51;;;;;;;10.70;4.53;;;18.30;71.10;;;;;;5053019;28;20056;-59
2023/04/07 09:42:57;;;;;;;26.70;6.38;;;18.20;72.90;;;;;;5040444;28;20063;-61
2023/04/07 09:46:14;;;;;;;11.00;4.88;;;18.10;72.40;;;;;;5051017;28;20392;-59
2023/04/07 09:49:19;;;;;;;11.80;4.57;;;18.20;74.20;;;;;;5051031;28;20044;-60
2023/04/07 09:52:52;;;;;;;14.40;5.10;;;18.50;75.10;;;;;;5051378;28;20060;-59
2023/04/07 09:55:56;;;;;;;9.88;4.88;;;18.90;72.90;;;;;;5052624;28;20044;-58
2023/04/07 09:59:01;;;;;;;10.13;4.03;;;19.10;70.50;;;;;;5051176;28;20039;-60
2023/04/07 10:02:06;;;;;;;17.10;5.18;;;19.30;70.90;;;;;;5051069;28;20669;-60
2023/04/07 10:05:10;;;;;;;15.77;6.20;;;19.50;72.60;;;;;;5051846;28;20048;-60
2023/04/07 10:08:15;;;;;;;10.20;4.90;;;19.60;71.40;;;;;;5051711;28;20416;-61
2023/04/07 10:11:19;;;;;;;26.85;6.95;;;19.60;70.50;;;;;;5051910;28;20596;-59
2023/04/07 10:14:28;;;;;;;15.50;5.53;;;19.70;71.30;;;;;;5052511;28;20040;-60
2023/04/07 10:17:35;;;;;;;11.82;4.72;;;19.80;68.50;;;;;;5052078;28;20370;-59
2023/04/07 10:20:42;;;;;;;10.75;4.45;;;19.90;69.30;;;;;;5052070;28;20096;-59
2023/04/07 10:23:58;;;;;;;15.32;4.97;;;20.00;70.40;;;;;;5051345;28;20108;-59
2023/04/07 10:27:16;;;;;;;7.53;4.00;;;20.10;69.20;;;;;;5051497;28;20055;-59
2023/04/07 10:30:24;;;;;;;10.57;3.90;;;20.20;67.60;;;;;;5051703;28;20044;-59
2023/04/07 10:34:04;;;;;;;15.05;5.68;;;20.10;68.10;;;;;;5051717;28;20044;-57
2023/04/07 10:37:16;;;;;;;11.63;4.43;;;19.80;66.50;;;;;;5049688;28;20044;-58
2023/04/07 10:40:20;;;;;;;14.75;4.50;;;19.70;65.20;;;;;;5052026;28;20044;-59
2023/04/07 10:43:40;;;;;;;11.00;4.13;;;19.50;64.70;;;;;;5051924;28;20535;-58
2023/04/07 10:46:44;;;;;;;12.82;4.03;;;19.50;65.80;;;;;;5051758;28;20060;-59
2023/04/07 10:50:14;;;;;;;7.45;3.78;;;19.60;66.70;;;;;;5051594;28;20040;-58
2023/04/07 10:53:18;;;;;;;9.82;3.20;;;19.70;64.20;;;;;;5051499;28;20401;-59
2023/04/07 10:56:22;;;;;;;8.30;3.33;;;19.60;59.40;;;;;;5051760;28;20393;-59
2023/04/07 10:59:29;;;;;;;13.70;4.05;;;19.60;61.90;;;;;;5051725;28;20063;-59
2023/04/07 11:02:34;;;;;;;8.43;3.30;;;19.60;63.40;;;;;;5051348;28;20060;-58
2023/04/07 11:05:42;;;;;;;10.30;4.40;;;19.40;61.30;;;;;;5050830;28;20504;-59
2023/04/07 11:08:47;;;;;;;6.63;3.90;;;19.20;62.70;;;;;;5051378;28;20040;-59
2023/04/07 11:11:52;;;;;;;14.45;4.03;;;19.00;64.60;;;;;;5051074;28;20393;-60
2023/04/07 11:14:58;;;;;;;15.82;4.18;;;18.80;65.00;;;;;;5051333;28;20187;-60
2023/04/07 11:18:06;;;;;;;11.98;4.30;;;18.80;63.60;;;;;;5050877;28;20051;-58
2023/04/07 11:21:10;;;;;;;12.13;4.15;;;18.80;66.10;;;;;;5050894;28;20048;-57
2023/04/07 11:24:33;;;;;;;13.23;5.35;;;19.00;66.30;;;;;;5050756;28;20381;-59
2023/04/07 11:27:37;;;;;;;13.25;4.07;;;19.10;66.70;;;;;;5050058;28;20048;-59
2023/04/07 11:30:50;;;;;;;6.80;4.32;;;19.20;65.60;;;;;;5051022;28;20040;-59
2023/04/07 11:33:58;;;;;;;9.52;4.30;;;19.20;65.60;;;;;;5051182;28;20040;-60
2023/04/07 11:37:27;;;;;;;13.30;4.22;;;19.10;66.60;;;;;;5051063;28;20388;-58
2023/04/07 11:40:36;;;;;;;9.35;3.72;;;19.10;67.90;;;;;;5050608;28;20064;-59
2023/04/07 11:43:40;;;;;;;16.85;4.03;;;18.90;66.90;;;;;;5049687;28;20044;-59
2023/04/07 11:46:56;;;;;;;7.90;3.95;;;18.80;65.10;;;;;;5050555;28;20043;-60
2023/04/07 11:50:00;;;;;;;7.13;3.53;;;18.80;62.80;;;;;;5050940;28;20059;-58
2023/04/07 11:53:04;;;;;;;7.55;3.50;;;18.80;63.30;;;;;;5050983;28;20052;-58
2023/04/07 11:56:11;;;;;;;6.40;3.45;;;18.90;62.40;;;;;;5050668;28;20043;-59
2023/04/07 11:59:23;;;;;;;10.35;4.50;;;19.00;63.00;;;;;;5050895;28;20050;-61
2023/04/07 12:02:34;;;;;;;6.82;3.72;;;19.00;63.60;;;;;;5050908;28;20052;-60
2023/04/07 12:05:42;;;;;;;12.90;4.15;;;19.10;64.60;;;;;;5050781;28;20414;-61
2023/04/07 12:08:46;;;;;;;16.40;4.70;;;19.10;65.00;;;;;;5050628;28;20052;-59
2023/04/07 12:11:50;;;;;;;9.07;4.28;;;19.00;66.40;;;;;;5050504;28;20044;-59
2023/04/07 12:14:55;;;;;;;18.05;4.47;;;19.00;65.30;;;;;;5050563;28;20044;-59
2023/04/07 12:18:00;;;;;;;10.73;3.78;;;19.10;66.40;;;;;;5050350;28;20040;-60
2023/04/07 12:21:04;;;;;;;7.97;3.35;;;19.10;67.10;;;;;;5048510;28;20048;-60
2023/04/07 12:24:08;;;;;;;8.55;4.47;;;19.10;66.10;;;;;;5049298;28;20052;-57
2023/04/07 12:27:12;;;;;;;15.88;4.30;;;19.10;66.40;;;;;;5050254;28;20044;-59
2023/04/07 12:30:16;;;;;;;11.75;3.90;;;19.10;65.50;;;;;;5050555;28;20052;-59
2023/04/07 12:33:20;;;;;;;8.35;3.80;;;19.00;59.90;;;;;;5050435;28;20041;-60
2023/04/07 12:36:26;;;;;;;7.65;3.25;;;18.90;61.70;;;;;;5050308;28;20146;-59
2023/04/07 12:39:32;;;;;;;25.10;13.70;;;18.90;64.90;;;;;;5050622;28;20048;-58
2023/04/07 12:42:36;;;;;;;12.23;4.55;;;18.80;64.20;;;;;;5050242;28;20063;-59
2023/04/07 12:45:40;;;;;;;12.68;3.35;;;18.90;63.70;;;;;;5050140;28;20083;-59
2023/04/07 12:48:43;;;;;;;7.70;3.22;;;18.80;61.30;;;;;;5049851;28;20052;-59
2023/04/07 12:51:48;;;;;;;6.75;3.50;;;18.80;63.70;;;;;;5050102;28;20056;-59
2023/04/07 12:54:52;;;;;;;14.15;4.93;;;18.70;66.50;;;;;;5052211;28;20048;-57
2023/04/07 12:57:56;;;;;;;13.55;3.42;;;18.70;64.20;;;;;;5054098;28;20048;-58
2023/04/07 13:01:00;;;;;;;10.00;3.58;;;18.60;65.70;;;;;;5053970;28;20535;-58
2023/04/07 13:04:05;;;;;;;10.65;3.97;;;18.60;66.00;;;;;;5053947;28;20052;-59
2023/04/07 13:07:09;;;;;;;8.95;3.40;;;18.60;64.90;;;;;;5053064;28;20060;-58
2023/04/07 13:10:12;;;;;;;6.20;3.03;;;18.60;66.10;;;;;;5053708;28;20044;-57
2023/04/07 13:13:16;;;;;;;10.15;2.63;;;18.60;66.70;;;;;;5053669;28;20052;-59
2023/04/07 13:16:20;;;;;;;9.48;3.13;;;18.60;64.80;;;;;;5052973;28;20055;-59
2023/04/07 13:19:24;;;;;;;10.02;3.65;;;18.60;67.10;;;;;;5053332;28;20409;-58
2023/04/07 13:22:28;;;;;;;9.55;3.58;;;18.50;67.60;;;;;;5053360;28;20052;-58
2023/04/07 13:25:33;;;;;;;9.18;3.92;;;18.50;66.50;;;;;;5053061;28;20048;-59
2023/04/07 13:28:36;;;;;;;11.93;3.90;;;18.40;68.00;;;;;;5053312;28;20420;-59
2023/04/07 13:31:40;;;;;;;7.00;3.20;;;18.40;68.30;;;;;;5053053;28;20048;-58
2023/04/07 13:34:45;;;;;;;7.55;3.30;;;18.40;70.20;;;;;;5053326;28;20076;-59
2023/04/07 13:37:49;;;;;;;10.27;3.55;;;18.30;69.40;;;;;;5053036;28;20075;-60
2023/04/07 13:40:53;;;;;;;8.52;3.40;;;18.30;67.10;;;;;;5052790;28;20048;-57
2023/04/07 13:43:57;;;;;;;12.90;3.70;;;18.30;68.20;;;;;;5053080;28;20060;-59
2023/04/07 13:47:02;;;;;;;14.23;4.82;;;18.30;69.70;;;;;;5052273;28;20048;-64
2023/04/07 13:50:06;;;;;;;7.03;3.15;;;18.20;67.10;;;;;;5052609;28;20072;-58
2023/04/07 13:53:10;;;;;;;10.13;3.47;;;18.20;66.00;;;;;;5053149;28;20048;-58
2023/04/07 13:56:14;;;;;;;9.25;3.20;;;18.10;64.20;;;;;;5052909;28;20040;-60
2023/04/07 13:59:18;;;;;;;10.57;3.20;;;18.00;64.70;;;;;;5051952;28;20051;-58
2023/04/07 14:02:23;;;;;;;9.07;3.35;;;18.10;65.00;;;;;;5052059;28;20056;-60
2023/04/07 14:05:27;;;;;;;12.15;3.72;;;18.10;68.60;;;;;;5052244;28;20039;-59
2023/04/07 14:08:31;;;;;;;11.27;3.88;;;18.00;69.50;;;;;;5052639;28;20104;-57
2023/04/07 14:11:35;;;;;;;9.90;3.83;;;18.00;68.50;;;;;;5052564;28;20040;-58
2023/04/07 14:14:40;;;;;;;6.40;3.70;;;18.00;68.80;;;;;;5052571;28;20393;-63
2023/04/07 14:17:44;;;;;;;7.03;3.38;;;18.00;68.60;;;;;;5052450;28;20040;-58
2023/04/07 14:20:48;;;;;;;11.50;3.53;;;18.00;68.40;;;;;;5052142;28;20044;-59
2023/04/07 14:23:53;;;;;;;10.77;3.90;;;17.90;69.00;;;;;;5051775;28;20056;-59
2023/04/07 14:26:57;;;;;;;12.93;3.20;;;17.90;69.20;;;;;;5052187;28;20068;-58
2023/04/07 14:30:01;;;;;;;5.22;3.00;;;17.80;68.70;;;;;;5052024;28;20047;-58
2023/04/07 14:33:05;;;;;;;13.85;3.63;;;17.80;70.40;;;;;;5052156;28;20401;-60
2023/04/07 14:36:09;;;;;;;7.95;3.65;;;17.70;70.90;;;;;;5052122;28;20052;-58
2023/04/07 14:39:13;;;;;;;11.02;3.72;;;17.70;68.70;;;;;;5051888;28;20049;-60
2023/04/07 14:42:17;;;;;;;9.63;3.35;;;17.70;66.30;;;;;;5051765;28;20064;-59
2023/04/07 14:45:22;;;;;;;5.57;3.20;;;17.70;66.40;;;;;;5051981;28;20512;-59
2023/04/07 14:48:26;;;;;;;12.85;3.33;;;17.70;62.90;;;;;;5051752;28;20043;-59
2023/04/07 14:51:31;;;;;;;11.57;3.20;;;17.70;65.80;;;;;;5051686;28;20047;-60
2023/04/07 14:54:35;;;;;;;7.93;3.38;;;17.60;69.60;;;;;;5051860;28;20087;-62
2023/04/07 14:57:38;;;;;;;14.90;3.17;;;17.60;69.40;;;;;;5051491;28;20043;-58
2023/04/07 15:00:42;;;;;;;9.32;3.60;;;17.50;68.10;;;;;;5051608;28;20534;-58
2023/04/07 15:03:46;;;;;;;11.20;3.78;;;17.50;68.70;;;;;;5051605;28;20122;-58
2023/04/07 15:06:50;;;;;;;8.38;3.30;;;17.40;68.00;;;;;;5051449;28;20040;-58
2023/04/07 15:09:55;;;;;;;12.57;4.05;;;17.40;68.40;;;;;;5051429;28;20472;-58
2023/04/07 15:12:59;;;;;;;9.30;4.22;;;17.40;69.30;;;;;;5051436;28;20052;-59
2023/04/07 15:16:11;;;;;;;4.63;3.08;;;17.40;66.90;;;;;;5051252;28;20040;-59
2023/04/07 15:19:15;;;;;;;13.50;3.92;;;17.40;67.50;;;;;;5051273;28;20100;-59
2023/04/07 15:22:19;;;;;;;6.22;2.80;;;17.40;64.50;;;;;;5051036;28;20051;-58
2023/04/07 15:25:23;;;;;;;7.93;2.95;;;17.40;65.40;;;;;;5051213;28;20503;-59
2023/04/07 15:28:27;;;;;;;18.95;3.10;;;17.40;69.10;;;;;;5050084;28;20052;-60
2023/04/07 15:31:31;;;;;;;13.32;3.35;;;17.50;70.00;;;;;;5051311;28;20063;-60
2023/04/07 15:34:35;;;;;;;7.50;3.40;;;17.50;70.90;;;;;;5050807;28;20143;-59
2023/04/07 15:37:39;;;;;;;15.75;3.53;;;17.50;71.30;;;;;;5050871;28;20044;-60
2023/04/07 15:40:43;;;;;;;6.50;2.78;;;17.50;71.20;;;;;;5050740;28;20052;-58
2023/04/07 15:43:47;;;;;;;14.23;3.25;;;17.40;70.30;;;;;;5050642;28;20480;-60
2023/04/07 15:46:52;;;;;;;20.88;3.17;;;17.40;70.20;;;;;;5050078;28;20518;-59
2023/04/07 15:49:56;;;;;;;11.98;3.20;;;17.30;70.10;;;;;;5051063;28;20393;-59
2023/04/07 15:53:00;;;;;;;16.75;3.83;;;17.30;70.10;;;;;;5050932;28;20048;-58
2023/04/07 15:56:04;;;;;;;10.40;3.10;;;17.30;69.80;;;;;;5051030;28;20044;-61
2023/04/07 15:59:08;;;;;;;10.57;2.45;;;17.20;68.10;;;;;;5050930;28;20047;-59
2023/04/07 16:02:13;;;;;;;9.93;2.83;;;17.10;68.70;;;;;;5050749;28;20060;-59
2023/04/07 16:05:17;;;;;;;12.32;2.60;;;17.10;68.00;;;;;;5051011;28;20381;-60
2023/04/07 16:08:21;;;;;;;8.48;3.50;;;17.00;69.00;;;;;;5050707;28;20044;-61
2023/04/07 16:11:25;;;;;;;10.95;3.38;;;17.00;69.90;;;;;;5050832;28;20498;-58
2023/04/07 16:14:30;;;;;;;10.45;3.60;;;17.00;69.60;;;;;;5050704;28;20044;-59
2023/04/07 16:17:35;;;;;;;7.00;3.15;;;16.90;68.20;;;;;;5050177;28;20432;-60